Terminal Aerodrome Forecast
Issued by NWS

Home | Current Version | Previous Version | Text Only | Print | Product List | Glossary On
Versions: 1 2 3 4 5 6 7 8 9 10 11 12
852
FTUS45 KABQ 140530
TAFFMN
TAF
KFMN 140530Z 1406/1506 25005KT P6SM SCT250
     FM140900 08006KT P6SM SCT250
     FM141900 29018G30KT P6SM SCT200
     FM150100 27007KT P6SM SCT250=

USA.gov is the U.S. government's official web portal to all federal, state and local government web resources and services.